sensor_id;sensor_type;location;lat;lon;timestamp;P1;durP1;ratioP1;P2;durP2;ratioP2
13795;SDS011;40911;51.552;9.874;2023-12-04T00:00:07;25.40;;;13.85;;
13795;SDS011;40911;51.552;9.874;2023-12-04T00:02:30;29.33;;;14.23;;
13795;SDS011;40911;51.552;9.874;2023-12-04T00:04:53;30.00;;;14.43;;
13795;SDS011;40911;51.552;9.874;2023-12-04T00:07:14;26.80;;;13.75;;
13795;SDS011;40911;51.552;9.874;2023-12-04T00:09:36;25.98;;;13.40;;
13795;SDS011;40911;51.552;9.874;2023-12-04T00:11:57;27.55;;;13.82;;
13795;SDS011;40911;51.552;9.874;2023-12-04T00:14:19;23.90;;;13.30;;
13795;SDS011;40911;51.552;9.874;2023-12-04T00:16:40;24.40;;;13.50;;
13795;SDS011;40911;51.552;9.874;2023-12-04T00:19:02;24.70;;;13.88;;
13795;SDS011;40911;51.552;9.874;2023-12-04T00:21:25;25.20;;;13.20;;
13795;SDS011;40911;51.552;9.874;2023-12-04T00:23:47;24.67;;;14.35;;
13795;SDS011;40911;51.552;9.874;2023-12-04T00:26:09;22.92;;;13.82;;
13795;SDS011;40911;51.552;9.874;2023-12-04T00:28:31;27.08;;;14.02;;
13795;SDS011;40911;51.552;9.874;2023-12-04T00:30:52;24.52;;;14.13;;
13795;SDS011;40911;51.552;9.874;2023-12-04T00:33:13;25.70;;;13.90;;
13795;SDS011;40911;51.552;9.874;2023-12-04T00:35:35;29.23;;;13.98;;
13795;SDS011;40911;51.552;9.874;2023-12-04T00:37:58;27.15;;;13.70;;
13795;SDS011;40911;51.552;9.874;2023-12-04T00:40:19;25.77;;;13.80;;
13795;SDS011;40911;51.552;9.874;2023-12-04T00:42:41;25.70;;;14.15;;
13795;SDS011;40911;51.552;9.874;2023-12-04T00:45:03;27.70;;;13.65;;
13795;SDS011;40911;51.552;9.874;2023-12-04T00:47:25;27.45;;;14.23;;
13795;SDS011;40911;51.552;9.874;2023-12-04T00:49:46;22.83;;;12.77;;
13795;SDS011;40911;51.552;9.874;2023-12-04T00:52:08;29.50;;;14.25;;
13795;SDS011;40911;51.552;9.874;2023-12-04T00:54:31;24.58;;;13.55;;
13795;SDS011;40911;51.552;9.874;2023-12-04T00:56:53;22.70;;;13.90;;
13795;SDS011;40911;51.552;9.874;2023-12-04T00:59:14;21.67;;;12.43;;
13795;SDS011;40911;51.552;9.874;2023-12-04T01:01:36;26.77;;;14.48;;
13795;SDS011;40911;51.552;9.874;2023-12-04T01:03:58;27.58;;;13.48;;
13795;SDS011;40911;51.552;9.874;2023-12-04T01:06:20;27.98;;;13.82;;
13795;SDS011;40911;51.552;9.874;2023-12-04T01:08:43;28.08;;;14.38;;
13795;SDS011;40911;51.552;9.874;2023-12-04T01:11:06;29.02;;;13.35;;
13795;SDS011;40911;51.552;9.874;2023-12-04T01:13:28;23.33;;;13.50;;
13795;SDS011;40911;51.552;9.874;2023-12-04T01:15:49;26.55;;;13.60;;
13795;SDS011;40911;51.552;9.874;2023-12-04T01:20:33;23.35;;;12.55;;
13795;SDS011;40911;51.552;9.874;2023-12-04T01:22:56;26.02;;;13.20;;
13795;SDS011;40911;51.552;9.874;2023-12-04T01:25:17;26.58;;;13.38;;
13795;SDS011;40911;51.552;9.874;2023-12-04T01:30:02;21.55;;;11.73;;
13795;SDS011;40911;51.552;9.874;2023-12-04T01:32:24;20.08;;;12.20;;
13795;SDS011;40911;51.552;9.874;2023-12-04T01:34:46;21.85;;;13.20;;
13795;SDS011;40911;51.552;9.874;2023-12-04T01:37:07;19.88;;;11.75;;
13795;SDS011;40911;51.552;9.874;2023-12-04T01:39:29;22.08;;;12.43;;
13795;SDS011;40911;51.552;9.874;2023-12-04T01:41:50;22.98;;;13.82;;
13795;SDS011;40911;51.552;9.874;2023-12-04T01:44:13;22.27;;;12.25;;
13795;SDS011;40911;51.552;9.874;2023-12-04T01:46:36;25.83;;;13.85;;
13795;SDS011;40911;51.552;9.874;2023-12-04T01:48:58;22.23;;;13.05;;
13795;SDS011;40911;51.552;9.874;2023-12-04T01:51:23;22.17;;;12.13;;
13795;SDS011;40911;51.552;9.874;2023-12-04T01:53:46;22.95;;;12.43;;
13795;SDS011;40911;51.552;9.874;2023-12-04T01:56:08;20.67;;;12.23;;
13795;SDS011;40911;51.552;9.874;2023-12-04T01:58:31;23.42;;;12.68;;
13795;SDS011;40911;51.552;9.874;2023-12-04T02:00:54;20.98;;;11.57;;
13795;SDS011;40911;51.552;9.874;2023-12-04T02:03:16;22.60;;;11.73;;
13795;SDS011;40911;51.552;9.874;2023-12-04T02:07:59;17.35;;;11.25;;
13795;SDS011;40911;51.552;9.874;2023-12-04T02:10:21;20.60;;;11.35;;
13795;SDS011;40911;51.552;9.874;2023-12-04T02:12:43;21.38;;;11.85;;
13795;SDS011;40911;51.552;9.874;2023-12-04T02:19:49;16.95;;;10.43;;
13795;SDS011;40911;51.552;9.874;2023-12-04T02:22:12;18.13;;;10.90;;
13795;SDS011;40911;51.552;9.874;2023-12-04T02:24:36;17.17;;;11.00;;
13795;SDS011;40911;51.552;9.874;2023-12-04T02:26:58;20.10;;;11.60;;
13795;SDS011;40911;51.552;9.874;2023-12-04T02:29:26;20.17;;;11.80;;
13795;SDS011;40911;51.552;9.874;2023-12-04T02:31:50;22.10;;;12.20;;
13795;SDS011;40911;51.552;9.874;2023-12-04T02:34:13;18.92;;;11.35;;
13795;SDS011;40911;51.552;9.874;2023-12-04T02:36:37;20.67;;;11.60;;
13795;SDS011;40911;51.552;9.874;2023-12-04T02:38:59;19.38;;;12.18;;
13795;SDS011;40911;51.552;9.874;2023-12-04T02:41:22;21.85;;;11.40;;
13795;SDS011;40911;51.552;9.874;2023-12-04T02:43:44;19.88;;;11.23;;
13795;SDS011;40911;51.552;9.874;2023-12-04T02:46:06;20.35;;;11.75;;
13795;SDS011;40911;51.552;9.874;2023-12-04T02:48:28;18.58;;;11.63;;
13795;SDS011;40911;51.552;9.874;2023-12-04T02:50:49;16.20;;;9.55;;
13795;SDS011;40911;51.552;9.874;2023-12-04T02:55:32;16.55;;;10.32;;
13795;SDS011;40911;51.552;9.874;2023-12-04T02:57:55;19.77;;;11.05;;
13795;SDS011;40911;51.552;9.874;2023-12-04T03:00:17;18.80;;;10.65;;
13795;SDS011;40911;51.552;9.874;2023-12-04T03:02:39;18.33;;;10.80;;
13795;SDS011;40911;51.552;9.874;2023-12-04T03:07:22;18.00;;;11.43;;
13795;SDS011;40911;51.552;9.874;2023-12-04T03:09:44;18.73;;;10.38;;
13795;SDS011;40911;51.552;9.874;2023-12-04T03:12:06;16.15;;;10.52;;
13795;SDS011;40911;51.552;9.874;2023-12-04T03:14:29;21.70;;;12.40;;
13795;SDS011;40911;51.552;9.874;2023-12-04T03:16:50;19.88;;;10.82;;
13795;SDS011;40911;51.552;9.874;2023-12-04T03:19:12;19.40;;;11.80;;
13795;SDS011;40911;51.552;9.874;2023-12-04T03:21:34;19.10;;;10.57;;
13795;SDS011;40911;51.552;9.874;2023-12-04T03:23:55;18.88;;;11.57;;
13795;SDS011;40911;51.552;9.874;2023-12-04T03:26:17;20.33;;;11.27;;
13795;SDS011;40911;51.552;9.874;2023-12-04T03:28:38;17.23;;;11.93;;
13795;SDS011;40911;51.552;9.874;2023-12-04T03:31:01;22.88;;;12.18;;
13795;SDS011;40911;51.552;9.874;2023-12-04T03:33:23;18.90;;;11.60;;
13795;SDS011;40911;51.552;9.874;2023-12-04T03:35:45;19.40;;;11.55;;
13795;SDS011;40911;51.552;9.874;2023-12-04T03:40:28;17.52;;;11.07;;
13795;SDS011;40911;51.552;9.874;2023-12-04T03:42:50;16.52;;;11.05;;
13795;SDS011;40911;51.552;9.874;2023-12-04T03:45:11;15.65;;;10.70;;
13795;SDS011;40911;51.552;9.874;2023-12-04T03:47:34;18.90;;;11.57;;
13795;SDS011;40911;51.552;9.874;2023-12-04T03:49:56;18.77;;;11.60;;
13795;SDS011;40911;51.552;9.874;2023-12-04T03:52:18;20.38;;;11.98;;
13795;SDS011;40911;51.552;9.874;2023-12-04T03:54:39;17.52;;;11.35;;
13795;SDS011;40911;51.552;9.874;2023-12-04T03:57:00;19.23;;;12.20;;
13795;SDS011;40911;51.552;9.874;2023-12-04T04:01:43;18.05;;;11.13;;
13795;SDS011;40911;51.552;9.874;2023-12-04T04:04:06;19.98;;;11.68;;
13795;SDS011;40911;51.552;9.874;2023-12-04T04:06:28;17.73;;;11.23;;
13795;SDS011;40911;51.552;9.874;2023-12-04T04:08:50;22.70;;;12.52;;
13795;SDS011;40911;51.552;9.874;2023-12-04T04:11:12;22.42;;;11.80;;
13795;SDS011;40911;51.552;9.874;2023-12-04T04:13:34;21.02;;;12.75;;
13795;SDS011;40911;51.552;9.874;2023-12-04T04:15:55;18.85;;;12.07;;
13795;SDS011;40911;51.552;9.874;2023-12-04T04:18:17;20.70;;;12.18;;
13795;SDS011;40911;51.552;9.874;2023-12-04T04:20:40;17.85;;;11.20;;
13795;SDS011;40911;51.552;9.874;2023-12-04T04:23:01;19.73;;;11.70;;
13795;SDS011;40911;51.552;9.874;2023-12-04T04:25:23;21.88;;;12.60;;
13795;SDS011;40911;51.552;9.874;2023-12-04T04:27:45;22.92;;;12.07;;
13795;SDS011;40911;51.552;9.874;2023-12-04T04:30:06;22.73;;;12.60;;
13795;SDS011;40911;51.552;9.874;2023-12-04T04:32:28;19.85;;;12.10;;
13795;SDS011;40911;51.552;9.874;2023-12-04T04:34:50;17.45;;;11.13;;
13795;SDS011;40911;51.552;9.874;2023-12-04T04:37:13;15.77;;;10.98;;
13795;SDS011;40911;51.552;9.874;2023-12-04T04:39:35;19.00;;;11.25;;
13795;SDS011;40911;51.552;9.874;2023-12-04T04:41:56;18.27;;;11.57;;
13795;SDS011;40911;51.552;9.874;2023-12-04T04:46:39;16.73;;;11.73;;
13795;SDS011;40911;51.552;9.874;2023-12-04T04:51:27;16.08;;;10.07;;
13795;SDS011;40911;51.552;9.874;2023-12-04T04:53:50;16.88;;;11.13;;
13795;SDS011;40911;51.552;9.874;2023-12-04T04:56:12;17.70;;;11.65;;
13795;SDS011;40911;51.552;9.874;2023-12-04T04:58:33;19.73;;;12.55;;
13795;SDS011;40911;51.552;9.874;2023-12-04T05:00:55;22.25;;;12.63;;
13795;SDS011;40911;51.552;9.874;2023-12-04T05:03:17;17.42;;;10.95;;
13795;SDS011;40911;51.552;9.874;2023-12-04T05:08:00;20.33;;;10.98;;
13795;SDS011;40911;51.552;9.874;2023-12-04T05:10:23;14.30;;;9.43;;
13795;SDS011;40911;51.552;9.874;2023-12-04T05:12:44;16.58;;;9.85;;
13795;SDS011;40911;51.552;9.874;2023-12-04T05:15:06;16.25;;;10.60;;
13795;SDS011;40911;51.552;9.874;2023-12-04T05:17:28;21.98;;;11.38;;
13795;SDS011;40911;51.552;9.874;2023-12-04T05:19:50;17.85;;;11.02;;
13795;SDS011;40911;51.552;9.874;2023-12-04T05:22:11;21.40;;;11.13;;
13795;SDS011;40911;51.552;9.874;2023-12-04T05:24:33;17.65;;;11.40;;
13795;SDS011;40911;51.552;9.874;2023-12-04T05:26:58;19.02;;;12.18;;
13795;SDS011;40911;51.552;9.874;2023-12-04T05:29:20;22.27;;;12.27;;
13795;SDS011;40911;51.552;9.874;2023-12-04T05:31:41;23.15;;;12.13;;
13795;SDS011;40911;51.552;9.874;2023-12-04T05:34:03;18.70;;;12.48;;
13795;SDS011;40911;51.552;9.874;2023-12-04T05:36:26;20.85;;;12.60;;
13795;SDS011;40911;51.552;9.874;2023-12-04T05:38:48;18.15;;;12.20;;
13795;SDS011;40911;51.552;9.874;2023-12-04T05:41:10;18.45;;;12.13;;
13795;SDS011;40911;51.552;9.874;2023-12-04T05:43:32;18.10;;;12.38;;
13795;SDS011;40911;51.552;9.874;2023-12-04T05:45:54;17.95;;;12.10;;
13795;SDS011;40911;51.552;9.874;2023-12-04T05:48:16;19.60;;;12.52;;
13795;SDS011;40911;51.552;9.874;2023-12-04T05:53:13;15.98;;;11.15;;
13795;SDS011;40911;51.552;9.874;2023-12-04T05:55:34;18.35;;;11.00;;
13795;SDS011;40911;51.552;9.874;2023-12-04T05:57:56;22.23;;;11.50;;
13795;SDS011;40911;51.552;9.874;2023-12-04T06:02:42;18.92;;;11.05;;
13795;SDS011;40911;51.552;9.874;2023-12-04T06:05:05;20.63;;;11.98;;
13795;SDS011;40911;51.552;9.874;2023-12-04T06:07:27;17.75;;;11.43;;
13795;SDS011;40911;51.552;9.874;2023-12-04T06:12:11;17.48;;;11.27;;
13795;SDS011;40911;51.552;9.874;2023-12-04T06:14:32;15.70;;;11.02;;
13795;SDS011;40911;51.552;9.874;2023-12-04T06:16:55;19.15;;;11.27;;
13795;SDS011;40911;51.552;9.874;2023-12-04T06:19:17;20.45;;;11.50;;
13795;SDS011;40911;51.552;9.874;2023-12-04T06:21:38;15.60;;;9.80;;
13795;SDS011;40911;51.552;9.874;2023-12-04T06:24:00;16.98;;;10.95;;
13795;SDS011;40911;51.552;9.874;2023-12-04T06:26:23;15.82;;;11.13;;
13795;SDS011;40911;51.552;9.874;2023-12-04T06:28:45;18.95;;;11.07;;
13795;SDS011;40911;51.552;9.874;2023-12-04T06:31:08;19.55;;;11.20;;
13795;SDS011;40911;51.552;9.874;2023-12-04T06:33:32;20.90;;;12.32;;
13795;SDS011;40911;51.552;9.874;2023-12-04T06:35:54;20.30;;;11.55;;
13795;SDS011;40911;51.552;9.874;2023-12-04T06:38:17;19.90;;;11.27;;
13795;SDS011;40911;51.552;9.874;2023-12-04T06:40:41;18.58;;;11.75;;
13795;SDS011;40911;51.552;9.874;2023-12-04T06:43:03;18.90;;;11.45;;
13795;SDS011;40911;51.552;9.874;2023-12-04T06:45:26;22.35;;;12.27;;
13795;SDS011;40911;51.552;9.874;2023-12-04T06:47:48;17.45;;;11.20;;
13795;SDS011;40911;51.552;9.874;2023-12-04T06:50:13;20.08;;;10.63;;
13795;SDS011;40911;51.552;9.874;2023-12-04T06:52:34;17.63;;;11.13;;
13795;SDS011;40911;51.552;9.874;2023-12-04T06:54:56;21.85;;;11.10;;
13795;SDS011;40911;51.552;9.874;2023-12-04T06:57:18;19.63;;;12.32;;
13795;SDS011;40911;51.552;9.874;2023-12-04T06:59:40;16.90;;;10.90;;
13795;SDS011;40911;51.552;9.874;2023-12-04T07:02:02;17.58;;;11.80;;
13795;SDS011;40911;51.552;9.874;2023-12-04T07:04:25;18.65;;;11.27;;
13795;SDS011;40911;51.552;9.874;2023-12-04T07:06:48;16.60;;;10.52;;
13795;SDS011;40911;51.552;9.874;2023-12-04T07:09:10;15.82;;;10.60;;
13795;SDS011;40911;51.552;9.874;2023-12-04T07:13:54;13.60;;;9.40;;
13795;SDS011;40911;51.552;9.874;2023-12-04T07:16:15;18.52;;;11.40;;
13795;SDS011;40911;51.552;9.874;2023-12-04T07:20:59;18.10;;;10.80;;
13795;SDS011;40911;51.552;9.874;2023-12-04T07:23:22;16.02;;;10.43;;
13795;SDS011;40911;51.552;9.874;2023-12-04T07:25:43;16.17;;;10.23;;
13795;SDS011;40911;51.552;9.874;2023-12-04T07:28:06;17.17;;;10.00;;
13795;SDS011;40911;51.552;9.874;2023-12-04T07:30:28;18.20;;;12.18;;
13795;SDS011;40911;51.552;9.874;2023-12-04T07:32:49;16.88;;;10.18;;
13795;SDS011;40911;51.552;9.874;2023-12-04T07:37:33;18.65;;;11.15;;
13795;SDS011;40911;51.552;9.874;2023-12-04T07:39:56;19.35;;;10.30;;
13795;SDS011;40911;51.552;9.874;2023-12-04T07:42:18;16.60;;;11.30;;
13795;SDS011;40911;51.552;9.874;2023-12-04T07:47:03;13.82;;;9.77;;
13795;SDS011;40911;51.552;9.874;2023-12-04T07:49:25;15.27;;;10.63;;
13795;SDS011;40911;51.552;9.874;2023-12-04T07:51:47;14.75;;;10.43;;
13795;SDS011;40911;51.552;9.874;2023-12-04T07:54:09;12.60;;;8.93;;
13795;SDS011;40911;51.552;9.874;2023-12-04T07:56:32;17.50;;;11.07;;
13795;SDS011;40911;51.552;9.874;2023-12-04T07:58:57;17.65;;;11.05;;
13795;SDS011;40911;51.552;9.874;2023-12-04T08:01:19;13.57;;;10.15;;
13795;SDS011;40911;51.552;9.874;2023-12-04T08:06:03;14.32;;;11.25;;
13795;SDS011;40911;51.552;9.874;2023-12-04T08:08:26;17.38;;;11.05;;
13795;SDS011;40911;51.552;9.874;2023-12-04T08:10:48;16.75;;;11.35;;
13795;SDS011;40911;51.552;9.874;2023-12-04T08:15:33;16.85;;;9.98;;
13795;SDS011;40911;51.552;9.874;2023-12-04T08:17:54;15.23;;;10.63;;
13795;SDS011;40911;51.552;9.874;2023-12-04T08:20:18;19.00;;;10.73;;
13795;SDS011;40911;51.552;9.874;2023-12-04T08:22:42;16.35;;;10.88;;
13795;SDS011;40911;51.552;9.874;2023-12-04T08:25:05;17.45;;;10.77;;
13795;SDS011;40911;51.552;9.874;2023-12-04T08:27:27;17.70;;;11.10;;
13795;SDS011;40911;51.552;9.874;2023-12-04T08:29:50;19.52;;;11.65;;
13795;SDS011;40911;51.552;9.874;2023-12-04T08:32:11;16.52;;;10.25;;
13795;SDS011;40911;51.552;9.874;2023-12-04T08:36:55;14.02;;;10.07;;
13795;SDS011;40911;51.552;9.874;2023-12-04T08:39:16;16.38;;;10.52;;
13795;SDS011;40911;51.552;9.874;2023-12-04T08:41:38;16.67;;;10.48;;
13795;SDS011;40911;51.552;9.874;2023-12-04T08:46:23;16.00;;;9.90;;
13795;SDS011;40911;51.552;9.874;2023-12-04T08:48:44;13.02;;;10.05;;
13795;SDS011;40911;51.552;9.874;2023-12-04T08:51:06;14.63;;;10.05;;
13795;SDS011;40911;51.552;9.874;2023-12-04T08:53:29;16.77;;;10.98;;
13795;SDS011;40911;51.552;9.874;2023-12-04T08:55:51;15.85;;;10.52;;
13795;SDS011;40911;51.552;9.874;2023-12-04T08:58:13;18.35;;;11.23;;
13795;SDS011;40911;51.552;9.874;2023-12-04T09:00:34;15.35;;;10.27;;
13795;SDS011;40911;51.552;9.874;2023-12-04T09:02:59;16.17;;;10.38;;
13795;SDS011;40911;51.552;9.874;2023-12-04T09:05:21;21.67;;;9.70;;
13795;SDS011;40911;51.552;9.874;2023-12-04T09:07:43;15.70;;;10.18;;
13795;SDS011;40911;51.552;9.874;2023-12-04T09:10:05;18.10;;;9.73;;
13795;SDS011;40911;51.552;9.874;2023-12-04T09:12:27;15.27;;;9.98;;
13795;SDS011;40911;51.552;9.874;2023-12-04T09:14:49;14.80;;;9.85;;
13795;SDS011;40911;51.552;9.874;2023-12-04T09:17:11;19.02;;;10.50;;
13795;SDS011;40911;51.552;9.874;2023-12-04T09:19:34;14.90;;;10.15;;
13795;SDS011;40911;51.552;9.874;2023-12-04T09:21:56;21.52;;;10.18;;
13795;SDS011;40911;51.552;9.874;2023-12-04T09:24:17;15.05;;;9.88;;
13795;SDS011;40911;51.552;9.874;2023-12-04T09:26:39;13.13;;;10.10;;
13795;SDS011;40911;51.552;9.874;2023-12-04T09:31:22;16.48;;;9.68;;
13795;SDS011;40911;51.552;9.874;2023-12-04T09:36:08;19.00;;;10.38;;
13795;SDS011;40911;51.552;9.874;2023-12-04T09:38:30;10.90;;;7.70;;
13795;SDS011;40911;51.552;9.874;2023-12-04T09:40:52;17.60;;;10.18;;
13795;SDS011;40911;51.552;9.874;2023-12-04T09:43:14;14.15;;;9.10;;
13795;SDS011;40911;51.552;9.874;2023-12-04T09:45:36;13.23;;;9.55;;
13795;SDS011;40911;51.552;9.874;2023-12-04T09:48:00;14.60;;;9.52;;
13795;SDS011;40911;51.552;9.874;2023-12-04T09:50:22;15.07;;;9.68;;
13795;SDS011;40911;51.552;9.874;2023-12-04T09:52:45;16.95;;;11.60;;
13795;SDS011;40911;51.552;9.874;2023-12-04T09:55:08;22.10;;;9.85;;
13795;SDS011;40911;51.552;9.874;2023-12-04T09:57:30;14.52;;;9.52;;
13795;SDS011;40911;51.552;9.874;2023-12-04T09:59:52;12.70;;;9.20;;
13795;SDS011;40911;51.552;9.874;2023-12-04T10:04:35;14.52;;;9.35;;
13795;SDS011;40911;51.552;9.874;2023-12-04T10:06:57;14.38;;;9.77;;
13795;SDS011;40911;51.552;9.874;2023-12-04T10:09:20;12.70;;;9.77;;
13795;SDS011;40911;51.552;9.874;2023-12-04T10:11:42;14.30;;;9.27;;
13795;SDS011;40911;51.552;9.874;2023-12-04T10:14:05;16.05;;;9.88;;
13795;SDS011;40911;51.552;9.874;2023-12-04T10:16:36;13.52;;;9.88;;
13795;SDS011;40911;51.552;9.874;2023-12-04T10:19:01;13.90;;;9.52;;
13795;SDS011;40911;51.552;9.874;2023-12-04T10:21:35;13.45;;;9.32;;
13795;SDS011;40911;51.552;9.874;2023-12-04T10:23:57;15.23;;;9.70;;
13795;SDS011;40911;51.552;9.874;2023-12-04T10:26:20;10.50;;;8.30;;
13795;SDS011;40911;51.552;9.874;2023-12-04T10:28:42;13.43;;;8.95;;
13795;SDS011;40911;51.552;9.874;2023-12-04T10:31:20;11.43;;;8.68;;
13795;SDS011;40911;51.552;9.874;2023-12-04T10:33:45;10.13;;;8.07;;
13795;SDS011;40911;51.552;9.874;2023-12-04T10:36:11;16.30;;;9.07;;
13795;SDS011;40911;51.552;9.874;2023-12-04T10:38:32;11.48;;;8.27;;
13795;SDS011;40911;51.552;9.874;2023-12-04T10:40:54;13.60;;;8.50;;
13795;SDS011;40911;51.552;9.874;2023-12-04T10:43:18;10.75;;;8.27;;
13795;SDS011;40911;51.552;9.874;2023-12-04T10:45:41;12.88;;;9.15;;
13795;SDS011;40911;51.552;9.874;2023-12-04T10:48:03;13.25;;;9.55;;
13795;SDS011;40911;51.552;9.874;2023-12-04T10:50:25;14.50;;;9.75;;
13795;SDS011;40911;51.552;9.874;2023-12-04T10:52:49;14.27;;;8.85;;
13795;SDS011;40911;51.552;9.874;2023-12-04T10:55:14;12.77;;;8.65;;
13795;SDS011;40911;51.552;9.874;2023-12-04T10:57:36;12.85;;;9.35;;
13795;SDS011;40911;51.552;9.874;2023-12-04T11:00:03;13.82;;;8.77;;
13795;SDS011;40911;51.552;9.874;2023-12-04T11:02:26;12.38;;;8.82;;
13795;SDS011;40911;51.552;9.874;2023-12-04T11:04:49;14.02;;;8.90;;
13795;SDS011;40911;51.552;9.874;2023-12-04T11:07:15;14.25;;;9.02;;
13795;SDS011;40911;51.552;9.874;2023-12-04T11:09:40;14.45;;;8.45;;
13795;SDS011;40911;51.552;9.874;2023-12-04T11:12:03;12.27;;;8.18;;
13795;SDS011;40911;51.552;9.874;2023-12-04T11:14:27;15.88;;;8.90;;
13795;SDS011;40911;51.552;9.874;2023-12-04T11:16:59;14.38;;;9.20;;
13795;SDS011;40911;51.552;9.874;2023-12-04T11:19:27;11.40;;;8.73;;
13795;SDS011;40911;51.552;9.874;2023-12-04T11:21:53;17.35;;;9.38;;
13795;SDS011;40911;51.552;9.874;2023-12-04T11:24:19;21.60;;;12.23;;
13795;SDS011;40911;51.552;9.874;2023-12-04T11:26:42;15.73;;;10.18;;
13795;SDS011;40911;51.552;9.874;2023-12-04T11:29:05;13.82;;;9.80;;
13795;SDS011;40911;51.552;9.874;2023-12-04T11:31:28;13.00;;;9.25;;
13795;SDS011;40911;51.552;9.874;2023-12-04T11:33:52;15.02;;;9.32;;
13795;SDS011;40911;51.552;9.874;2023-12-04T11:36:13;11.25;;;9.13;;
13795;SDS011;40911;51.552;9.874;2023-12-04T11:38:37;14.77;;;9.10;;
13795;SDS011;40911;51.552;9.874;2023-12-04T11:41:11;14.77;;;8.88;;
13795;SDS011;40911;51.552;9.874;2023-12-04T11:43:35;11.95;;;8.23;;
13795;SDS011;40911;51.552;9.874;2023-12-04T11:46:06;15.73;;;8.90;;
13795;SDS011;40911;51.552;9.874;2023-12-04T11:48:29;12.98;;;8.65;;
13795;SDS011;40911;51.552;9.874;2023-12-04T11:50:53;10.57;;;8.50;;
13795;SDS011;40911;51.552;9.874;2023-12-04T11:53:17;12.25;;;8.00;;
13795;SDS011;40911;51.552;9.874;2023-12-04T11:55:40;10.45;;;7.57;;
13795;SDS011;40911;51.552;9.874;2023-12-04T11:58:02;12.43;;;7.88;;
13795;SDS011;40911;51.552;9.874;2023-12-04T12:00:30;14.02;;;7.90;;
13795;SDS011;40911;51.552;9.874;2023-12-04T12:03:01;16.17;;;8.48;;
13795;SDS011;40911;51.552;9.874;2023-12-04T12:05:26;11.90;;;7.65;;
13795;SDS011;40911;51.552;9.874;2023-12-04T12:07:49;14.10;;;7.90;;
13795;SDS011;40911;51.552;9.874;2023-12-04T12:10:11;10.52;;;7.53;;
13795;SDS011;40911;51.552;9.874;2023-12-04T12:12:34;11.65;;;7.82;;
13795;SDS011;40911;51.552;9.874;2023-12-04T12:14:56;11.50;;;8.05;;
13795;SDS011;40911;51.552;9.874;2023-12-04T12:17:18;10.75;;;7.63;;
13795;SDS011;40911;51.552;9.874;2023-12-04T12:19:40;9.05;;;7.38;;
13795;SDS011;40911;51.552;9.874;2023-12-04T12:24:24;11.13;;;7.72;;
13795;SDS011;40911;51.552;9.874;2023-12-04T12:26:46;9.95;;;7.30;;
13795;SDS011;40911;51.552;9.874;2023-12-04T12:29:08;12.05;;;7.88;;
13795;SDS011;40911;51.552;9.874;2023-12-04T12:31:30;8.65;;;7.05;;
13795;SDS011;40911;51.552;9.874;2023-12-04T12:33:52;11.18;;;8.30;;
13795;SDS011;40911;51.552;9.874;2023-12-04T12:36:13;11.18;;;7.90;;
13795;SDS011;40911;51.552;9.874;2023-12-04T12:38:37;10.80;;;7.35;;
13795;SDS011;40911;51.552;9.874;2023-12-04T12:41:00;10.57;;;8.25;;
13795;SDS011;40911;51.552;9.874;2023-12-04T12:43:22;10.25;;;6.93;;
13795;SDS011;40911;51.552;9.874;2023-12-04T12:45:44;9.98;;;6.90;;
13795;SDS011;40911;51.552;9.874;2023-12-04T12:48:10;10.23;;;6.90;;
13795;SDS011;40911;51.552;9.874;2023-12-04T12:50:32;12.25;;;7.00;;
13795;SDS011;40911;51.552;9.874;2023-12-04T12:52:54;15.25;;;8.70;;
13795;SDS011;40911;51.552;9.874;2023-12-04T12:55:22;16.23;;;8.98;;
13795;SDS011;40911;51.552;9.874;2023-12-04T12:57:48;9.90;;;6.90;;
13795;SDS011;40911;51.552;9.874;2023-12-04T13:00:10;9.63;;;7.20;;
13795;SDS011;40911;51.552;9.874;2023-12-04T13:02:34;8.10;;;6.30;;
13795;SDS011;40911;51.552;9.874;2023-12-04T13:04:57;9.00;;;6.60;;
13795;SDS011;40911;51.552;9.874;2023-12-04T13:07:18;8.27;;;6.82;;
13795;SDS011;40911;51.552;9.874;2023-12-04T13:09:41;8.93;;;6.93;;
13795;SDS011;40911;51.552;9.874;2023-12-04T13:12:03;9.52;;;6.15;;
13795;SDS011;40911;51.552;9.874;2023-12-04T13:14:27;9.10;;;7.03;;
13795;SDS011;40911;51.552;9.874;2023-12-04T13:16:49;9.70;;;6.65;;
13795;SDS011;40911;51.552;9.874;2023-12-04T13:21:32;8.35;;;6.63;;
13795;SDS011;40911;51.552;9.874;2023-12-04T13:23:54;8.07;;;6.40;;
13795;SDS011;40911;51.552;9.874;2023-12-04T13:26:16;10.82;;;7.57;;
13795;SDS011;40911;51.552;9.874;2023-12-04T13:28:38;11.25;;;6.57;;
13795;SDS011;40911;51.552;9.874;2023-12-04T13:33:23;12.65;;;7.10;;
13795;SDS011;40911;51.552;9.874;2023-12-04T13:35:46;14.18;;;8.55;;
13795;SDS011;40911;51.552;9.874;2023-12-04T13:38:07;12.77;;;8.00;;
13795;SDS011;40911;51.552;9.874;2023-12-04T13:40:33;10.45;;;6.70;;
13795;SDS011;40911;51.552;9.874;2023-12-04T13:42:56;9.85;;;6.97;;
13795;SDS011;40911;51.552;9.874;2023-12-04T13:45:35;10.77;;;7.80;;
13795;SDS011;40911;51.552;9.874;2023-12-04T13:47:58;11.32;;;8.07;;
13795;SDS011;40911;51.552;9.874;2023-12-04T13:50:20;11.07;;;7.18;;
13795;SDS011;40911;51.552;9.874;2023-12-04T13:52:42;9.73;;;6.82;;
13795;SDS011;40911;51.552;9.874;2023-12-04T13:55:03;9.98;;;6.80;;
13795;SDS011;40911;51.552;9.874;2023-12-04T13:57:34;11.18;;;7.13;;
13795;SDS011;40911;51.552;9.874;2023-12-04T14:00:04;10.80;;;7.32;;
13795;SDS011;40911;51.552;9.874;2023-12-04T14:02:27;9.38;;;7.40;;
13795;SDS011;40911;51.552;9.874;2023-12-04T14:04:49;12.43;;;8.13;;
13795;SDS011;40911;51.552;9.874;2023-12-04T14:07:10;11.40;;;7.25;;
13795;SDS011;40911;51.552;9.874;2023-12-04T14:11:55;11.30;;;7.72;;
13795;SDS011;40911;51.552;9.874;2023-12-04T14:14:16;14.07;;;8.35;;
13795;SDS011;40911;51.552;9.874;2023-12-04T14:16:38;11.70;;;8.30;;
13795;SDS011;40911;51.552;9.874;2023-12-04T14:19:00;11.90;;;8.05;;
13795;SDS011;40911;51.552;9.874;2023-12-04T14:21:24;9.57;;;7.35;;
13795;SDS011;40911;51.552;9.874;2023-12-04T14:23:46;9.13;;;6.32;;
13795;SDS011;40911;51.552;9.874;2023-12-04T14:26:08;9.20;;;6.65;;
13795;SDS011;40911;51.552;9.874;2023-12-04T14:28:29;7.15;;;6.30;;
13795;SDS011;40911;51.552;9.874;2023-12-04T14:30:51;7.65;;;6.47;;
13795;SDS011;40911;51.552;9.874;2023-12-04T14:33:12;9.45;;;6.57;;
13795;SDS011;40911;51.552;9.874;2023-12-04T14:37:58;7.55;;;6.40;;
13795;SDS011;40911;51.552;9.874;2023-12-04T14:40:20;7.43;;;5.85;;
13795;SDS011;40911;51.552;9.874;2023-12-04T14:42:43;8.20;;;6.63;;
13795;SDS011;40911;51.552;9.874;2023-12-04T14:45:05;8.43;;;6.78;;
13795;SDS011;40911;51.552;9.874;2023-12-04T14:47:27;7.55;;;6.47;;
13795;SDS011;40911;51.552;9.874;2023-12-04T14:49:49;7.43;;;6.22;;
13795;SDS011;40911;51.552;9.874;2023-12-04T14:52:14;8.93;;;7.28;;
13795;SDS011;40911;51.552;9.874;2023-12-04T14:54:37;9.40;;;6.80;;
13795;SDS011;40911;51.552;9.874;2023-12-04T14:57:11;10.10;;;7.18;;
13795;SDS011;40911;51.552;9.874;2023-12-04T15:00:08;8.43;;;6.75;;
13795;SDS011;40911;51.552;9.874;2023-12-04T15:02:49;10.02;;;6.18;;
13795;SDS011;40911;51.552;9.874;2023-12-04T15:05:29;10.60;;;7.18;;
13795;SDS011;40911;51.552;9.874;2023-12-04T15:08:19;8.90;;;6.60;;
13795;SDS011;40911;51.552;9.874;2023-12-04T15:10:59;9.38;;;6.78;;
13795;SDS011;40911;51.552;9.874;2023-12-04T15:13:44;9.70;;;6.93;;
13795;SDS011;40911;51.552;9.874;2023-12-04T15:16:15;9.73;;;6.68;;